Time;durP1;ratioP1;P1;durP2;ratioP2;P2;SDS_P1;SDS_P2;PMS_P1;PMS_P2;Temp;Humidity;BMP_temperature;BMP_pressure;BME280_temperature;BME280_humidity;BME280_pressure;Samples;Min_cycle;Max_cycle;Signal;HPM_P1;HPM_P2
2022/07/28 00:00:33;;;;;;;0.90;0.90;;;16.30;99.90;;;;;;6312282;28;20274;-67
2022/07/28 00:03:40;;;;;;;0.68;0.68;;;16.30;99.90;;;;;;6311291;28;20298;-67
2022/07/28 00:06:46;;;;;;;1.10;1.00;;;16.40;99.90;;;;;;6311694;28;20270;-67
2022/07/28 00:09:52;;;;;;;1.10;1.10;;;16.30;99.90;;;;;;6311333;28;20286;-67
2022/07/28 00:13:04;;;;;;;0.98;0.98;;;16.30;99.90;;;;;;6310695;28;20299;-67
2022/07/28 00:16:11;;;;;;;1.20;0.80;;;16.30;99.90;;;;;;6311497;28;20271;-67
2022/07/28 00:19:19;;;;;;;1.60;1.00;;;16.20;99.90;;;;;;6311000;28;20307;-67
2022/07/28 00:22:24;;;;;;;1.25;1.10;;;16.30;99.90;;;;;;6310729;28;20370;-67
2022/07/28 00:25:29;;;;;;;0.90;0.90;;;16.20;99.90;;;;;;6311414;28;20274;-67
2022/07/28 00:28:35;;;;;;;1.52;0.82;;;16.10;99.60;;;;;;6310861;28;20294;-67
2022/07/28 00:31:40;;;;;;;2.38;1.10;;;16.10;99.60;;;;;;6311623;28;20290;-67
2022/07/28 00:34:47;;;;;;;1.05;1.05;;;16.10;99.10;;;;;;6311062;28;20298;-67
2022/07/28 00:37:57;;;;;;;0.90;0.90;;;16.10;99.00;;;;;;6310963;28;20290;-67
2022/07/28 00:41:13;;;;;;;0.90;0.90;;;16.10;98.40;;;;;;6310862;28;20302;-67
2022/07/28 00:44:18;;;;;;;1.15;1.15;;;16.00;98.20;;;;;;6311129;28;20362;-67
2022/07/28 00:47:23;;;;;;;0.80;0.80;;;16.20;98.20;;;;;;6310306;28;20290;-67
2022/07/28 00:50:30;;;;;;;3.40;0.95;;;16.20;98.30;;;;;;6311811;28;20270;-67
2022/07/28 00:53:36;;;;;;;0.98;0.98;;;16.20;98.00;;;;;;6310275;28;20430;-67
2022/07/28 00:56:41;;;;;;;0.90;0.90;;;16.10;97.40;;;;;;6311152;28;20523;-67
2022/07/28 00:59:46;;;;;;;1.17;0.70;;;16.00;97.60;;;;;;6310573;28;20293;-68
2022/07/28 01:02:51;;;;;;;0.88;0.88;;;16.00;98.10;;;;;;6310067;28;20294;-67
2022/07/28 01:06:10;;;;;;;0.70;0.70;;;16.10;97.70;;;;;;6309582;28;20275;-67
2022/07/28 01:09:38;;;;;;;0.73;0.73;;;16.00;97.60;;;;;;6310261;28;20294;-67
2022/07/28 01:12:51;;;;;;;0.70;0.70;;;16.00;97.70;;;;;;6285425;28;20293;-67
2022/07/28 01:16:01;;;;;;;0.80;0.80;;;15.90;97.40;;;;;;6285136;28;20291;-67
2022/07/28 01:19:17;;;;;;;0.77;0.77;;;15.90;97.40;;;;;;6285451;28;20379;-67
2022/07/28 01:22:28;;;;;;;0.80;0.80;;;15.90;97.20;;;;;;6284844;28;20291;-67
2022/07/28 01:25:46;;;;;;;17.98;1.25;;;15.90;97.00;;;;;;6285633;28;20558;-67
2022/07/28 01:29:06;;;;;;;1.00;1.00;;;15.90;97.10;;;;;;6285179;28;20303;-67
2022/07/28 01:32:19;;;;;;;0.80;0.80;;;15.90;96.90;;;;;;6285018;28;20267;-67
2022/07/28 01:35:29;;;;;;;1.00;1.00;;;15.90;97.20;;;;;;6285469;28;20484;-67
2022/07/28 01:38:35;;;;;;;0.63;0.63;;;15.90;97.20;;;;;;6285213;28;20598;-67
2022/07/28 01:41:43;;;;;;;0.80;0.80;;;15.80;96.70;;;;;;6284826;28;20550;-67
2022/07/28 01:44:50;;;;;;;1.48;0.80;;;15.80;97.40;;;;;;6285105;28;20295;-67
2022/07/28 01:48:00;;;;;;;0.65;0.60;;;15.80;97.40;;;;;;6285256;28;20295;-67
2022/07/28 01:51:07;;;;;;;0.93;0.80;;;15.80;97.20;;;;;;6284632;28;20276;-67
2022/07/28 01:54:13;;;;;;;0.70;0.70;;;15.70;97.10;;;;;;6284726;28;20598;-67
2022/07/28 01:57:20;;;;;;;1.00;0.70;;;15.70;97.20;;;;;;6284809;28;20295;-67
2022/07/28 02:00:26;;;;;;;0.95;0.90;;;15.60;97.20;;;;;;6284963;28;20456;-67
2022/07/28 02:03:34;;;;;;;0.90;0.90;;;15.70;97.40;;;;;;6284866;28;20477;-67
2022/07/28 02:06:42;;;;;;;0.70;0.70;;;15.60;97.20;;;;;;6285041;28;20271;-66
2022/07/28 02:09:48;;;;;;;0.95;0.70;;;15.60;97.50;;;;;;6288098;28;20290;-66
2022/07/28 02:12:55;;;;;;;0.82;0.82;;;15.60;97.30;;;;;;6309564;28;20375;-66
2022/07/28 02:16:02;;;;;;;0.95;0.80;;;15.60;97.50;;;;;;6309540;28;20298;-67
2022/07/28 02:19:09;;;;;;;0.80;0.80;;;15.60;97.30;;;;;;6313638;28;20290;-66
2022/07/28 02:22:17;;;;;;;2.13;0.65;;;15.50;97.50;;;;;;6314032;28;20290;-66
2022/07/28 02:25:23;;;;;;;0.82;0.80;;;15.50;97.40;;;;;;6314025;28;20534;-66
2022/07/28 02:28:28;;;;;;;0.82;0.70;;;15.40;97.40;;;;;;6313809;28;20298;-66
2022/07/28 02:31:40;;;;;;;1.15;0.75;;;15.30;97.40;;;;;;6313964;28;20270;-67
2022/07/28 02:34:49;;;;;;;0.80;0.80;;;15.30;97.40;;;;;;6313825;28;20496;-67
2022/07/28 02:38:01;;;;;;;0.70;0.70;;;15.30;97.40;;;;;;6313254;28;20579;-67
2022/07/28 02:41:12;;;;;;;0.65;0.65;;;15.30;97.40;;;;;;6313717;28;20464;-66
2022/07/28 02:44:21;;;;;;;2.28;0.77;;;15.30;97.50;;;;;;6313336;28;20609;-66
2022/07/28 02:47:29;;;;;;;0.88;0.70;;;15.40;97.40;;;;;;6313443;28;20298;-66
2022/07/28 02:50:35;;;;;;;1.13;1.00;;;15.30;97.50;;;;;;6314077;28;20271;-67
2022/07/28 02:53:40;;;;;;;0.90;0.90;;;15.30;97.50;;;;;;6313415;28;20294;-67
2022/07/28 02:56:49;;;;;;;0.93;0.93;;;15.20;97.50;;;;;;6313775;28;20290;-67
2022/07/28 02:59:57;;;;;;;1.65;0.90;;;15.30;97.60;;;;;;6312603;28;20453;-67
2022/07/28 03:03:03;;;;;;;0.77;0.77;;;15.20;97.70;;;;;;6312268;28;20414;-67
2022/07/28 03:06:11;;;;;;;0.88;0.88;;;15.10;97.70;;;;;;6309401;28;20306;-67
2022/07/28 03:09:16;;;;;;;1.17;0.75;;;15.10;97.60;;;;;;6294614;28;20302;-67
2022/07/28 03:12:22;;;;;;;0.90;0.90;;;15.10;97.90;;;;;;6313673;28;20266;-67
2022/07/28 03:15:27;;;;;;;1.05;0.70;;;15.10;97.70;;;;;;6313027;28;20294;-67
2022/07/28 03:18:33;;;;;;;0.80;0.80;;;15.10;97.70;;;;;;6312868;28;20569;-67
2022/07/28 03:21:40;;;;;;;0.80;0.80;;;15.10;98.00;;;;;;6312672;28;20262;-67
2022/07/28 03:24:50;;;;;;;0.43;0.43;;;15.10;98.00;;;;;;6312611;28;20298;-68
2022/07/28 03:27:57;;;;;;;0.90;0.90;;;15.10;97.80;;;;;;6313160;28;20304;-68
2022/07/28 03:31:07;;;;;;;0.70;0.70;;;15.00;97.80;;;;;;6311860;28;20294;-67
2022/07/28 03:34:12;;;;;;;0.80;0.80;;;15.00;97.90;;;;;;6313006;28;20302;-68
2022/07/28 03:37:26;;;;;;;1.48;0.90;;;15.00;97.80;;;;;;6312753;28;20295;-67
2022/07/28 03:40:32;;;;;;;0.70;0.70;;;15.00;98.00;;;;;;6312129;28;20304;-67
2022/07/28 03:43:38;;;;;;;0.82;0.80;;;14.90;98.10;;;;;;6311660;28;20369;-67
2022/07/28 03:46:44;;;;;;;0.73;0.73;;;15.00;97.90;;;;;;6312390;28;20275;-67
2022/07/28 03:49:50;;;;;;;0.65;0.60;;;14.90;97.90;;;;;;6311886;28;20298;-67
2022/07/28 03:52:58;;;;;;;0.82;0.82;;;14.90;97.90;;;;;;6312206;28;20270;-67
2022/07/28 03:56:04;;;;;;;1.00;1.00;;;15.00;98.00;;;;;;6311549;28;20473;-67
2022/07/28 03:59:10;;;;;;;2.22;0.68;;;15.00;98.00;;;;;;6311249;28;20298;-67
2022/07/28 04:02:15;;;;;;;0.68;0.65;;;15.00;98.00;;;;;;6312239;28;20269;-67
2022/07/28 04:05:21;;;;;;;0.80;0.80;;;14.90;98.40;;;;;;6311754;28;20471;-67
2022/07/28 04:08:28;;;;;;;2.13;0.80;;;15.00;98.10;;;;;;6311870;28;20274;-67
2022/07/28 04:11:33;;;;;;;0.70;0.70;;;15.00;98.10;;;;;;6311396;28;20258;-67
2022/07/28 04:14:38;;;;;;;1.00;0.60;;;15.00;97.70;;;;;;6311169;28;20299;-67
2022/07/28 04:17:44;;;;;;;1.35;0.63;;;15.00;98.00;;;;;;6312361;28;20286;-67
2022/07/28 04:20:49;;;;;;;0.73;0.63;;;15.10;98.30;;;;;;6310876;28;20294;-67
2022/07/28 04:23:56;;;;;;;0.55;0.55;;;15.00;97.80;;;;;;6311058;28;20295;-68
2022/07/28 04:27:06;;;;;;;0.85;0.70;;;15.00;97.80;;;;;;6311993;28;20286;-68
2022/07/28 04:30:16;;;;;;;0.93;0.93;;;15.00;97.90;;;;;;6310814;28;20351;-68
2022/07/28 04:33:21;;;;;;;0.60;0.60;;;15.10;98.00;;;;;;6310734;28;20266;-68
2022/07/28 04:36:26;;;;;;;0.90;0.90;;;15.10;98.10;;;;;;6311177;28;20550;-67
2022/07/28 04:39:34;;;;;;;0.60;0.60;;;15.10;98.20;;;;;;6310360;28;20302;-68
2022/07/28 04:42:39;;;;;;;0.70;0.70;;;15.00;97.80;;;;;;6310724;28;20270;-67
2022/07/28 04:45:46;;;;;;;1.35;0.80;;;15.20;98.50;;;;;;6311232;28;20448;-67
2022/07/28 04:48:58;;;;;;;0.50;0.50;;;15.10;97.80;;;;;;6310688;28;20489;-67
2022/07/28 04:52:04;;;;;;;2.90;0.73;;;15.10;97.60;;;;;;6310778;28;20271;-68
2022/07/28 04:55:11;;;;;;;0.65;0.65;;;15.10;97.60;;;;;;6310770;28;20317;-67
2022/07/28 04:58:35;;;;;;;0.73;0.73;;;15.20;98.20;;;;;;6311010;28;20290;-67
2022/07/28 05:01:42;;;;;;;0.80;0.80;;;15.20;97.70;;;;;;6309971;28;20274;-67
2022/07/28 05:04:47;;;;;;;0.73;0.73;;;15.20;97.90;;;;;;6310316;28;20295;-67
2022/07/28 05:07:53;;;;;;;0.60;0.60;;;15.20;97.80;;;;;;6310551;28;20271;-67
2022/07/28 05:10:59;;;;;;;1.58;0.70;;;15.20;97.80;;;;;;6309511;28;20306;-68
2022/07/28 05:14:05;;;;;;;2.90;0.70;;;15.10;98.10;;;;;;6310115;28;20298;-68
2022/07/28 05:17:16;;;;;;;0.60;0.60;;;15.10;98.60;;;;;;6310598;28;20275;-68
2022/07/28 05:20:21;;;;;;;0.70;0.70;;;15.10;97.90;;;;;;6310255;28;20299;-67
2022/07/28 05:23:27;;;;;;;0.70;0.70;;;15.10;97.80;;;;;;6309753;28;20550;-67
2022/07/28 05:26:34;;;;;;;1.83;0.80;;;15.10;97.90;;;;;;6310634;28;20270;-68
2022/07/28 05:29:40;;;;;;;1.25;0.90;;;15.00;98.10;;;;;;6310391;28;20303;-68
2022/07/28 05:32:52;;;;;;;1.77;1.00;;;14.90;98.60;;;;;;6310700;28;20271;-67
2022/07/28 05:35:58;;;;;;;0.77;0.77;;;14.90;98.20;;;;;;6307290;28;20299;-67
2022/07/28 05:39:03;;;;;;;0.80;0.80;;;14.90;98.30;;;;;;6304679;28;20298;-68
2022/07/28 05:42:11;;;;;;;0.75;0.75;;;14.80;98.40;;;;;;6309984;28;20515;-67
2022/07/28 05:45:16;;;;;;;0.75;0.75;;;14.80;98.20;;;;;;6310040;28;20294;-68
2022/07/28 05:48:22;;;;;;;2.00;0.70;;;14.90;98.50;;;;;;6309448;28;20278;-68
2022/07/28 05:51:27;;;;;;;1.67;0.70;;;15.00;98.30;;;;;;6310312;28;20254;-68
2022/07/28 05:54:32;;;;;;;2.58;0.90;;;14.90;98.00;;;;;;6314424;28;20590;-67
2022/07/28 05:57:40;;;;;;;3.10;0.80;;;15.00;97.90;;;;;;6315485;28;20546;-68
2022/07/28 06:00:45;;;;;;;2.05;0.70;;;15.10;98.10;;;;;;6314467;28;20294;-69
2022/07/28 06:03:53;;;;;;;0.85;0.80;;;15.10;97.70;;;;;;6314737;28;20472;-68
2022/07/28 06:07:14;;;;;;;0.80;0.80;;;15.10;97.80;;;;;;6314445;28;20267;-67
2022/07/28 06:10:23;;;;;;;0.88;0.80;;;15.10;97.90;;;;;;6314260;28;20585;-67
2022/07/28 06:13:30;;;;;;;1.30;0.70;;;15.10;97.70;;;;;;6313792;28;20267;-67
2022/07/28 06:16:35;;;;;;;4.43;0.93;;;15.30;97.90;;;;;;6314355;28;20287;-67
2022/07/28 06:19:41;;;;;;;0.80;0.80;;;15.40;97.50;;;;;;6313343;28;20597;-67
2022/07/28 06:22:48;;;;;;;1.13;1.00;;;15.50;97.50;;;;;;6314481;28;20274;-67
2022/07/28 06:25:54;;;;;;;0.93;0.73;;;15.70;97.80;;;;;;6313708;28;20298;-67
2022/07/28 06:29:01;;;;;;;2.08;0.70;;;15.80;97.50;;;;;;6313152;28;20302;-67
2022/07/28 06:32:06;;;;;;;1.35;0.60;;;16.00;97.10;;;;;;6313676;28;20274;-67
2022/07/28 06:35:13;;;;;;;0.82;0.70;;;16.20;96.90;;;;;;6313658;28;20601;-67
2022/07/28 06:38:19;;;;;;;0.50;0.50;;;16.20;97.50;;;;;;6314199;28;20448;-67
2022/07/28 06:41:25;;;;;;;0.70;0.70;;;16.20;96.60;;;;;;6313161;28;20294;-67
2022/07/28 06:44:32;;;;;;;1.20;0.88;;;16.30;96.60;;;;;;6313038;28;20290;-67
2022/07/28 06:47:57;;;;;;;0.90;0.70;;;16.40;96.60;;;;;;6314494;28;20271;-68
2022/07/28 06:51:03;;;;;;;0.65;0.63;;;16.30;96.70;;;;;;6313263;28;20418;-68
2022/07/28 06:54:08;;;;;;;0.70;0.70;;;16.50;97.70;;;;;;6312736;28;20298;-68
2022/07/28 06:57:15;;;;;;;1.85;0.60;;;16.60;96.20;;;;;;6313772;28;20266;-68
2022/07/28 07:00:22;;;;;;;0.80;0.80;;;16.60;96.20;;;;;;6312699;28;20474;-68
2022/07/28 07:03:27;;;;;;;0.60;0.60;;;16.70;96.20;;;;;;6312113;28;20451;-67
2022/07/28 07:06:32;;;;;;;1.10;0.70;;;16.60;96.50;;;;;;6313262;28;20274;-68
2022/07/28 07:09:38;;;;;;;0.80;0.80;;;16.70;96.50;;;;;;6313430;28;20302;-67
2022/07/28 07:12:43;;;;;;;2.03;0.68;;;16.70;96.30;;;;;;6313263;28;20266;-67
2022/07/28 07:15:50;;;;;;;1.65;0.60;;;16.80;96.60;;;;;;6312304;28;20306;-67
2022/07/28 07:18:55;;;;;;;0.60;0.60;;;16.90;96.40;;;;;;6312336;28;20590;-67
2022/07/28 07:22:01;;;;;;;1.00;1.00;;;16.90;96.20;;;;;;6312798;28;20271;-67
2022/07/28 07:25:10;;;;;;;1.55;0.70;;;17.00;97.20;;;;;;6312012;28;20299;-67
2022/07/28 07:28:15;;;;;;;3.50;0.90;;;17.00;96.70;;;;;;6312308;28;20270;-68
2022/07/28 07:31:28;;;;;;;0.70;0.70;;;17.20;96.60;;;;;;6311921;28;20283;-68
2022/07/28 07:34:34;;;;;;;0.80;0.80;;;17.10;96.40;;;;;;6311998;28;20595;-68
2022/07/28 07:37:39;;;;;;;0.60;0.60;;;17.30;96.30;;;;;;6312816;28;20275;-67
2022/07/28 07:40:45;;;;;;;0.80;0.80;;;17.30;95.90;;;;;;6311293;28;20309;-67
2022/07/28 07:43:50;;;;;;;0.70;0.70;;;17.50;96.20;;;;;;6311943;28;20290;-67
2022/07/28 07:46:56;;;;;;;2.30;0.60;;;17.50;95.20;;;;;;6312358;28;20275;-67
2022/07/28 07:50:01;;;;;;;0.80;0.80;;;17.40;94.70;;;;;;6311535;28;20302;-68
2022/07/28 07:53:11;;;;;;;0.50;0.50;;;17.50;94.60;;;;;;6312239;28;20271;-67
2022/07/28 07:56:17;;;;;;;0.50;0.50;;;17.40;94.50;;;;;;6312229;28;20290;-68
2022/07/28 07:59:22;;;;;;;0.70;0.70;;;17.50;95.00;;;;;;6311278;28;20324;-67
2022/07/28 08:02:29;;;;;;;0.73;0.60;;;17.70;95.30;;;;;;6312291;28;20286;-68
2022/07/28 08:05:34;;;;;;;0.73;0.73;;;17.80;94.50;;;;;;6311486;28;20310;-67
2022/07/28 08:08:41;;;;;;;0.80;0.80;;;17.70;94.40;;;;;;6311398;28;20460;-67
2022/07/28 08:11:52;;;;;;;2.05;0.70;;;17.60;93.70;;;;;;6311951;28;20263;-67
2022/07/28 08:14:57;;;;;;;0.75;0.60;;;17.60;94.20;;;;;;6311369;28;20310;-68
2022/07/28 08:18:04;;;;;;;0.77;0.77;;;17.60;93.70;;;;;;6311648;28;20458;-69
2022/07/28 08:21:13;;;;;;;0.70;0.70;;;17.70;93.40;;;;;;6310602;28;20302;-67
2022/07/28 08:24:19;;;;;;;0.60;0.60;;;17.70;93.00;;;;;;6311092;28;20294;-69
2022/07/28 08:27:37;;;;;;;0.73;0.73;;;17.80;93.20;;;;;;6311558;28;20271;-68
2022/07/28 08:30:43;;;;;;;0.90;0.90;;;17.90;93.40;;;;;;6311076;28;20302;-69
2022/07/28 08:33:49;;;;;;;0.82;0.80;;;17.70;92.70;;;;;;6311330;28;20286;-69
2022/07/28 08:36:58;;;;;;;2.65;0.60;;;17.80;92.60;;;;;;6311654;28;20274;-68
2022/07/28 08:40:05;;;;;;;0.70;0.70;;;17.70;92.20;;;;;;6308393;28;20306;-67
2022/07/28 08:43:23;;;;;;;1.13;1.10;;;17.80;92.90;;;;;;6311419;28;20275;-68
2022/07/28 08:46:34;;;;;;;3.65;3.55;;;17.80;92.80;;;;;;6310154;28;20310;-68
2022/07/28 08:49:42;;;;;;;2.92;2.67;;;17.90;92.70;;;;;;6292755;28;20297;-68
2022/07/28 08:52:50;;;;;;;11.15;8.27;;;17.80;92.50;;;;;;6310854;28;20274;-68
2022/07/28 08:56:02;;;;;;;69.40;36.33;;;17.90;92.70;;;;;;6311302;28;20295;-68
2022/07/28 08:59:08;;;;;;;20.02;13.55;;;17.70;92.20;;;;;;6310138;28;20294;-69
2022/07/28 09:02:14;;;;;;;4.43;2.67;;;17.70;92.70;;;;;;6310640;28;20289;-69
2022/07/28 09:05:22;;;;;;;4.13;4.00;;;17.60;92.40;;;;;;6310441;28;20290;-68
2022/07/28 09:08:27;;;;;;;2.88;1.30;;;17.50;92.40;;;;;;6310140;28;20270;-68
2022/07/28 09:11:32;;;;;;;1.65;1.23;;;17.50;92.40;;;;;;6310102;28;20455;-69
2022/07/28 09:14:38;;;;;;;1.42;1.40;;;17.50;92.60;;;;;;6310274;28;20294;-68
2022/07/28 09:17:43;;;;;;;0.68;0.68;;;17.50;91.80;;;;;;6310948;28;20270;-69
2022/07/28 09:20:50;;;;;;;0.95;0.95;;;17.60;92.50;;;;;;6309817;28;20302;-68
2022/07/28 09:23:55;;;;;;;1.48;1.48;;;17.50;91.80;;;;;;6309727;28;20290;-68
2022/07/28 09:27:05;;;;;;;1.25;1.25;;;17.70;91.90;;;;;;6310805;28;20266;-68
2022/07/28 09:30:12;;;;;;;0.82;0.82;;;17.90;92.40;;;;;;6315140;28;20298;-69
2022/07/28 09:33:21;;;;;;;0.98;0.90;;;17.90;91.80;;;;;;6315298;28;20274;-68
2022/07/28 09:36:47;;;;;;;0.95;0.95;;;17.90;92.40;;;;;;6314628;28;20293;-67
2022/07/28 09:39:57;;;;;;;1.10;1.10;;;17.60;91.70;;;;;;6314595;28;20302;-67
2022/07/28 09:43:04;;;;;;;0.90;0.90;;;17.60;92.20;;;;;;6315219;28;20586;-67
2022/07/28 09:46:11;;;;;;;0.80;0.80;;;17.80;92.60;;;;;;6315035;28;20293;-67
2022/07/28 09:49:17;;;;;;;1.30;1.30;;;17.90;91.70;;;;;;6314750;28;20298;-68
2022/07/28 09:52:32;;;;;;;0.63;0.63;;;18.00;91.50;;;;;;6315197;28;20270;-68
2022/07/28 09:55:55;;;;;;;0.90;0.90;;;18.00;91.90;;;;;;6314669;28;20298;-68
2022/07/28 09:59:02;;;;;;;0.73;0.70;;;18.00;91.10;;;;;;6314621;28;20294;-67
2022/07/28 10:02:08;;;;;;;1.83;1.83;;;18.10;91.90;;;;;;6314864;28;20286;-68
2022/07/28 10:05:15;;;;;;;1.90;1.80;;;17.90;91.10;;;;;;6313891;28;20294;-68
2022/07/28 10:08:43;;;;;;;1.25;1.13;;;18.10;92.10;;;;;;6314311;28;20274;-67
2022/07/28 10:11:48;;;;;;;0.80;0.80;;;18.10;92.30;;;;;;6314701;28;20271;-67
2022/07/28 10:14:55;;;;;;;1.00;1.00;;;18.20;91.80;;;;;;6313787;28;20293;-67
2022/07/28 10:18:00;;;;;;;1.05;1.00;;;18.20;91.50;;;;;;6314486;28;20275;-67
2022/07/28 10:21:09;;;;;;;1.05;1.05;;;18.20;92.00;;;;;;6314536;28;20302;-67
2022/07/28 10:24:22;;;;;;;0.80;0.80;;;18.40;92.40;;;;;;6314041;28;20315;-67
2022/07/28 10:27:28;;;;;;;0.80;0.80;;;18.50;90.70;;;;;;6314523;28;20270;-67
2022/07/28 10:30:39;;;;;;;1.23;1.23;;;18.30;90.50;;;;;;6313433;28;20298;-67
2022/07/28 10:33:50;;;;;;;1.30;1.30;;;18.30;90.90;;;;;;6313886;28;20289;-68
2022/07/28 10:36:56;;;;;;;1.00;1.00;;;18.40;90.90;;;;;;6314137;28;20270;-68
2022/07/28 10:40:06;;;;;;;0.93;0.93;;;18.40;90.10;;;;;;6313541;28;20306;-68
2022/07/28 10:43:15;;;;;;;1.60;1.50;;;18.50;90.00;;;;;;6313450;28;20290;-68
2022/07/28 10:46:21;;;;;;;1.42;1.30;;;18.50;90.30;;;;;;6313207;28;20558;-68
2022/07/28 10:49:27;;;;;;;0.90;0.90;;;18.50;90.10;;;;;;6313148;28;20294;-68
2022/07/28 10:52:38;;;;;;;0.90;0.90;;;18.60;90.10;;;;;;6313793;28;20530;-68
2022/07/28 10:56:03;;;;;;;0.70;0.70;;;18.50;89.80;;;;;;6312981;28;20294;-69
2022/07/28 10:59:30;;;;;;;1.00;1.00;;;18.60;89.40;;;;;;6312644;28;20294;-67
2022/07/28 11:02:51;;;;;;;0.80;0.80;;;18.70;89.00;;;;;;6313501;28;20294;-67
2022/07/28 11:05:57;;;;;;;0.70;0.70;;;18.90;88.70;;;;;;6312929;28;20295;-67
2022/07/28 11:09:24;;;;;;;1.35;1.10;;;18.80;87.20;;;;;;6312610;28;20294;-67
2022/07/28 11:12:51;;;;;;;0.80;0.80;;;18.70;87.10;;;;;;6312933;28;20270;-67
2022/07/28 11:15:58;;;;;;;3.83;0.90;;;18.80;88.10;;;;;;6312608;28;20318;-67
2022/07/28 11:19:06;;;;;;;1.02;0.90;;;18.90;88.80;;;;;;6312765;28;20361;-67
2022/07/28 11:22:32;;;;;;;3.70;3.50;;;19.00;88.50;;;;;;6312757;28;20290;-68
2022/07/28 11:25:38;;;;;;;1.40;1.40;;;19.10;87.50;;;;;;6312483;28;20581;-68
2022/07/28 11:29:19;;;;;;;1.00;1.00;;;19.10;88.00;;;;;;6312373;28;20310;-68
2022/07/28 11:32:24;;;;;;;1.05;0.98;;;18.90;87.80;;;;;;6312966;28;20278;-68
2022/07/28 11:35:47;;;;;;;1.65;1.10;;;18.90;89.50;;;;;;6313106;28;20290;-68
2022/07/28 11:39:23;;;;;;;0.70;0.70;;;18.80;88.80;;;;;;6312365;28;20420;-68
2022/07/28 11:42:31;;;;;;;0.70;0.70;;;18.70;86.20;;;;;;6312099;28;20286;-68
2022/07/28 11:45:39;;;;;;;0.90;0.90;;;18.70;86.20;;;;;;6312347;28;20479;-70
2022/07/28 11:49:24;;;;;;;0.80;0.80;;;18.70;86.50;;;;;;6312229;28;20291;-68
2022/07/28 11:52:29;;;;;;;0.65;0.65;;;18.80;86.00;;;;;;6312178;28;20270;-68
2022/07/28 11:55:35;;;;;;;1.58;0.77;;;18.80;86.50;;;;;;6312050;28;20298;-66
2022/07/28 11:59:02;;;;;;;0.80;0.80;;;18.80;87.90;;;;;;6312067;28;20298;-67
2022/07/28 12:02:10;;;;;;;1.75;1.10;;;18.80;86.90;;;;;;6312232;28;20270;-68
2022/07/28 12:05:16;;;;;;;0.70;0.70;;;18.90;86.10;;;;;;6311610;28;20301;-68
2022/07/28 12:08:22;;;;;;;0.70;0.70;;;19.00;85.60;;;;;;6311487;28;20270;-68
2022/07/28 12:11:32;;;;;;;0.63;0.63;;;19.10;85.30;;;;;;6311508;28;20258;-68
2022/07/28 12:14:42;;;;;;;0.80;0.80;;;19.10;85.10;;;;;;6310694;28;20302;-68
2022/07/28 12:17:50;;;;;;;1.23;0.73;;;19.30;85.20;;;;;;6312033;28;20270;-67
2022/07/28 12:20:55;;;;;;;0.70;0.70;;;19.30;86.60;;;;;;6311045;28;20322;-67
2022/07/28 12:24:10;;;;;;;0.65;0.65;;;19.50;87.70;;;;;;6310976;28;20315;-68
2022/07/28 12:27:15;;;;;;;0.80;0.80;;;19.60;84.50;;;;;;6311503;28;20266;-67
2022/07/28 12:30:26;;;;;;;4.00;3.90;;;19.60;84.40;;;;;;6310720;28;20616;-67
2022/07/28 12:33:34;;;;;;;2.22;2.13;;;19.40;83.50;;;;;;6310577;28;20274;-68
2022/07/28 12:36:39;;;;;;;0.90;0.90;;;19.40;83.80;;;;;;6311731;28;20291;-68
2022/07/28 12:39:51;;;;;;;0.70;0.70;;;19.50;83.70;;;;;;6311247;28;20314;-68
2022/07/28 12:42:56;;;;;;;0.93;0.93;;;19.50;83.30;;;;;;6311288;28;20266;-68
2022/07/28 12:46:02;;;;;;;1.05;1.02;;;19.60;83.40;;;;;;6310489;28;20484;-68
2022/07/28 12:49:21;;;;;;;0.90;0.90;;;19.60;83.20;;;;;;6310493;28;20293;-68
2022/07/28 12:52:26;;;;;;;0.77;0.75;;;19.50;82.40;;;;;;6310908;28;20462;-68
2022/07/28 12:55:31;;;;;;;0.80;0.80;;;19.40;82.10;;;;;;6310216;28;20299;-68
2022/07/28 12:58:37;;;;;;;0.60;0.60;;;19.30;82.00;;;;;;6309740;28;20270;-68
2022/07/28 13:01:50;;;;;;;0.77;0.77;;;19.40;82.50;;;;;;6310078;28;20274;-68
2022/07/28 13:04:57;;;;;;;0.90;0.82;;;19.50;82.90;;;;;;6310230;28;20294;-68
2022/07/28 13:08:05;;;;;;;3.20;0.70;;;19.70;82.70;;;;;;6311449;28;20451;-68
2022/07/28 13:11:13;;;;;;;0.70;0.70;;;20.00;86.00;;;;;;6309854;28;20382;-68
2022/07/28 13:14:39;;;;;;;14.95;10.63;;;20.10;81.50;;;;;;6310166;28;20477;-68
2022/07/28 13:17:53;;;;;;;4.53;4.30;;;19.90;80.90;;;;;;6310046;28;20461;-68
2022/07/28 13:21:00;;;;;;;9.02;8.23;;;19.80;80.80;;;;;;6309847;28;20302;-68
2022/07/28 13:24:06;;;;;;;5.43;3.85;;;19.70;81.50;;;;;;6309758;28;20577;-68
2022/07/28 13:27:12;;;;;;;1.33;1.33;;;19.70;80.80;;;;;;6310695;28;20372;-68
2022/07/28 13:30:18;;;;;;;1.23;1.13;;;19.90;80.60;;;;;;6309832;28;20298;-68
2022/07/28 13:33:25;;;;;;;1.00;1.00;;;20.00;80.60;;;;;;6309989;28;20262;-68
2022/07/28 13:36:33;;;;;;;1.30;1.00;;;19.90;80.90;;;;;;6310328;28;20274;-68
2022/07/28 13:39:39;;;;;;;1.08;0.82;;;20.20;81.00;;;;;;6309738;28;20294;-68
2022/07/28 13:42:44;;;;;;;4.15;0.70;;;20.20;78.50;;;;;;6310093;28;20275;-68
2022/07/28 13:45:57;;;;;;;0.85;0.85;;;20.40;78.20;;;;;;6309827;28;20298;-68
2022/07/28 13:49:04;;;;;;;3.63;0.90;;;21.50;75.10;;;;;;6310018;28;20303;-69
2022/07/28 13:52:15;;;;;;;0.80;0.80;;;21.60;74.40;;;;;;6310525;28;20275;-68
2022/07/28 13:55:39;;;;;;;0.88;0.88;;;21.50;75.50;;;;;;6309454;28;20306;-68
2022/07/28 13:58:44;;;;;;;1.75;0.70;;;21.30;75.50;;;;;;6309585;28;20295;-68
2022/07/28 14:01:49;;;;;;;0.88;0.88;;;20.90;75.20;;;;;;6308984;28;20270;-68
2022/07/28 14:04:55;;;;;;;2.25;2.25;;;20.70;75.60;;;;;;6309543;28;20585;-68
2022/07/28 14:08:02;;;;;;;1.85;1.30;;;20.50;76.00;;;;;;6310012;28;20270;-68
2022/07/28 14:11:08;;;;;;;3.20;1.52;;;20.40;76.60;;;;;;6309358;28;20585;-68
2022/07/28 14:14:15;;;;;;;1.00;1.00;;;20.50;75.80;;;;;;6311476;28;20366;-68
2022/07/28 14:17:24;;;;;;;1.17;1.17;;;20.40;77.10;;;;;;6313887;28;20270;-68
2022/07/28 14:20:49;;;;;;;0.80;0.80;;;20.30;77.80;;;;;;6314039;28;20332;-69
2022/07/28 14:23:55;;;;;;;1.13;0.90;;;20.20;76.40;;;;;;6314563;28;20314;-69
2022/07/28 14:27:01;;;;;;;1.00;1.00;;;20.00;75.70;;;;;;6314465;28;20290;-68
2022/07/28 14:30:08;;;;;;;4.45;1.10;;;20.00;76.90;;;;;;6313950;28;20601;-69
2022/07/28 14:33:15;;;;;;;0.80;0.80;;;20.00;76.10;;;;;;6314427;28;20357;-67
2022/07/28 14:36:20;;;;;;;0.80;0.80;;;20.20;73.60;;;;;;6313330;28;20278;-69
2022/07/28 14:39:27;;;;;;;1.02;0.80;;;20.40;74.40;;;;;;6313644;28;20294;-68
2022/07/28 14:42:32;;;;;;;0.60;0.60;;;20.60;73.70;;;;;;6313282;28;20557;-69
2022/07/28 14:45:38;;;;;;;0.73;0.70;;;20.70;74.30;;;;;;6313640;28;20298;-69
2022/07/28 14:49:03;;;;;;;0.60;0.60;;;20.80;74.10;;;;;;6313826;28;20338;-68
2022/07/28 14:52:10;;;;;;;2.15;2.15;;;20.90;77.10;;;;;;6313442;28;20556;-68
2022/07/28 14:55:17;;;;;;;0.85;0.85;;;20.80;75.10;;;;;;6312742;28;20302;-68
2022/07/28 14:58:23;;;;;;;1.10;1.10;;;20.80;74.10;;;;;;6313314;28;20266;-68
2022/07/28 15:01:28;;;;;;;1.33;0.90;;;21.50;75.30;;;;;;6313775;28;20266;-68
2022/07/28 15:04:40;;;;;;;0.75;0.75;;;21.50;71.10;;;;;;6313081;28;20295;-68
2022/07/28 15:07:47;;;;;;;1.48;0.90;;;21.60;72.10;;;;;;6312873;28;20415;-68
2022/07/28 15:10:56;;;;;;;0.90;0.80;;;21.60;71.10;;;;;;6312751;28;20294;-68
2022/07/28 15:14:01;;;;;;;2.22;1.00;;;21.50;73.60;;;;;;6312942;28;20302;-68
2022/07/28 15:17:07;;;;;;;0.80;0.80;;;21.60;73.90;;;;;;6312874;28;20274;-68
2022/07/28 15:20:12;;;;;;;0.73;0.73;;;21.70;75.40;;;;;;6312556;28;20290;-67
2022/07/28 15:23:18;;;;;;;0.77;0.77;;;21.80;73.80;;;;;;6312757;28;20426;-68
2022/07/28 15:26:26;;;;;;;1.98;1.98;;;21.60;69.60;;;;;;6311156;28;20301;-68
2022/07/28 15:29:31;;;;;;;1.92;1.92;;;21.40;70.60;;;;;;6312508;28;20337;-68
2022/07/28 15:32:39;;;;;;;0.98;0.98;;;21.40;70.60;;;;;;6312326;28;20282;-68
2022/07/28 15:36:01;;;;;;;0.80;0.80;;;21.20;70.80;;;;;;6309190;28;20291;-68
2022/07/28 15:39:07;;;;;;;0.95;0.95;;;21.10;73.10;;;;;;6307728;28;20294;-67
2022/07/28 15:42:14;;;;;;;1.33;0.80;;;21.10;75.20;;;;;;6312345;28;20294;-68
2022/07/28 15:45:20;;;;;;;0.90;0.90;;;21.10;75.50;;;;;;6311343;28;20298;-68
2022/07/28 15:48:25;;;;;;;0.82;0.80;;;21.10;76.20;;;;;;6311338;28;20275;-68
2022/07/28 15:51:32;;;;;;;0.80;0.80;;;20.80;71.90;;;;;;6312734;28;20209;-68
2022/07/28 15:54:37;;;;;;;1.38;0.80;;;20.80;73.60;;;;;;6311736;28;20314;-68
2022/07/28 15:57:45;;;;;;;1.20;1.20;;;20.70;73.00;;;;;;6312158;28;20275;-68
2022/07/28 16:00:51;;;;;;;0.90;0.90;;;20.60;71.10;;;;;;6311924;28;20582;-68
2022/07/28 16:03:57;;;;;;;1.88;0.80;;;20.60;72.10;;;;;;6311817;28;20307;-68
2022/07/28 16:07:22;;;;;;;0.80;0.80;;;20.50;70.90;;;;;;6311917;28;20298;-68
2022/07/28 16:10:28;;;;;;;1.27;1.27;;;20.40;71.50;;;;;;6311586;28;20297;-68
2022/07/28 16:13:34;;;;;;;1.45;0.90;;;20.30;72.30;;;;;;6311426;28;20262;-68
2022/07/28 16:16:41;;;;;;;0.88;0.88;;;20.30;73.60;;;;;;6311755;28;20279;-67
2022/07/28 16:19:47;;;;;;;0.90;0.90;;;20.20;72.30;;;;;;6311004;28;20302;-67